SAS717 EGNT-LFPG
Flight info
| Callsign | SAS717 |
|---|---|
| Flight time | 1h 15m |
| Altitude | 39000 |
| Route | GIRLI P18 GASKO P16 RIBEL UP16 CROFT UL612 WOD UM605 BIBAX |
| Aircraft | B736/M-SDE2E3FGHIRWXY/LB1 |
Departure
| Time | 2026-05-04 21:52 |
|---|---|
| Airport | Newcastle International Airport (EGNT) |
Arrival
| Time | 2026-05-04 23:07 |
|---|---|
| Airport | Charles de Gaulle International Airport (LFPG) |
| Time | Latitude | Longitude | Altitude | Speed | Heading |
|---|---|---|---|---|---|
| 2026-05-04 21:22 | 55.03730 | -1.70671 | 266 ft | 0 kts | 184° |
| 2026-05-04 21:37 | 55.03731 | -1.70671 | 266 ft | 2 kts | 184° |
| 2026-05-04 21:37 | 55.03747 | -1.70669 | 266 ft | 2 kts | 184° |
| 2026-05-04 21:38 | 55.03763 | -1.70667 | 266 ft | 2 kts | 184° |
| 2026-05-04 21:38 | 55.03779 | -1.70664 | 266 ft | 2 kts | 172° |
| 2026-05-04 21:38 | 55.03794 | -1.70676 | 266 ft | 2 kts | 117° |
| 2026-05-04 21:38 | 55.03801 | -1.70701 | 266 ft | 2 kts | 105° |
| 2026-05-04 21:39 | 55.03802 | -1.70709 | 266 ft | 0 kts | 90° |
| 2026-05-04 21:43 | 55.03802 | -1.70706 | 266 ft | 2 kts | 90° |
| 2026-05-04 21:43 | 55.03802 | -1.70651 | 266 ft | 7 kts | 91° |
| 2026-05-04 21:43 | 55.03798 | -1.70530 | 266 ft | 13 kts | 95° |
| 2026-05-04 21:43 | 55.03781 | -1.70358 | 266 ft | 15 kts | 97° |
| 2026-05-04 21:44 | 55.03774 | -1.70160 | 262 ft | 17 kts | 92° |
| 2026-05-04 21:44 | 55.03777 | -1.69962 | 259 ft | 16 kts | 85° |
| 2026-05-04 21:44 | 55.03791 | -1.69773 | 257 ft | 15 kts | 79° |
| 2026-05-04 21:44 | 55.03817 | -1.69595 | 256 ft | 15 kts | 73° |
| 2026-05-04 21:45 | 55.03855 | -1.69434 | 254 ft | 14 kts | 64° |
| 2026-05-04 21:45 | 55.03898 | -1.69283 | 253 ft | 14 kts | 64° |
| 2026-05-04 21:45 | 55.03937 | -1.69137 | 252 ft | 13 kts | 67° |
| 2026-05-04 21:45 | 55.03971 | -1.68994 | 250 ft | 13 kts | 66° |
| 2026-05-04 21:46 | 55.04007 | -1.68856 | 249 ft | 12 kts | 65° |
| 2026-05-04 21:46 | 55.04044 | -1.68722 | 249 ft | 12 kts | 64° |
| 2026-05-04 21:46 | 55.04079 | -1.68592 | 248 ft | 12 kts | 64° |
| 2026-05-04 21:46 | 55.04114 | -1.68465 | 247 ft | 11 kts | 64° |
| 2026-05-04 21:47 | 55.04146 | -1.68341 | 247 ft | 11 kts | 66° |
| 2026-05-04 21:47 | 55.04177 | -1.68219 | 246 ft | 11 kts | 65° |
| 2026-05-04 21:47 | 55.04208 | -1.68103 | 246 ft | 10 kts | 65° |
| 2026-05-04 21:47 | 55.04238 | -1.67989 | 246 ft | 10 kts | 65° |
| 2026-05-04 21:48 | 55.04269 | -1.67874 | 246 ft | 11 kts | 65° |
| 2026-05-04 21:48 | 55.04305 | -1.67737 | 244 ft | 14 kts | 65° |
| 2026-05-04 21:48 | 55.04333 | -1.67567 | 242 ft | 15 kts | 90° |
| 2026-05-04 21:48 | 55.04310 | -1.67390 | 240 ft | 15 kts | 135° |
| 2026-05-04 21:49 | 55.04217 | -1.67388 | 241 ft | 14 kts | 225° |
| 2026-05-04 21:49 | 55.04178 | -1.67524 | 243 ft | 0 kts | 245° |
| 2026-05-04 21:51 | 55.04145 | -1.67650 | 244 ft | 42 kts | 245° |
| 2026-05-04 21:51 | 55.03920 | -1.68505 | 248 ft | 110 kts | 245° |
| 2026-05-04 21:51 | 55.03540 | -1.70019 | 301 ft | 156 kts | 246° |
| 2026-05-04 21:51 | 55.03058 | -1.71757 | 829 ft | 161 kts | 244° |
| 2026-05-04 21:52 | 55.02544 | -1.73473 | 1629 ft | 161 kts | 247° |
| 2026-05-04 21:52 | 55.02042 | -1.75246 | 2332 ft | 172 kts | 237° |
| 2026-05-04 21:52 | 55.00959 | -1.76483 | 2713 ft | 207 kts | 200° |
| 2026-05-04 21:52 | 54.99493 | -1.77343 | 3003 ft | 238 kts | 201° |
| 2026-05-04 21:53 | 54.97849 | -1.78358 | 3514 ft | 256 kts | 201° |
| 2026-05-04 21:53 | 54.96160 | -1.79411 | 4450 ft | 257 kts | 201° |
| 2026-05-04 21:53 | 54.94470 | -1.80473 | 5430 ft | 258 kts | 202° |
| 2026-05-04 21:53 | 54.92788 | -1.81539 | 6341 ft | 262 kts | 202° |
| 2026-05-04 21:54 | 54.91060 | -1.82638 | 7215 ft | 266 kts | 202° |
| 2026-05-04 21:54 | 54.89297 | -1.83765 | 7749 ft | 272 kts | 203° |
| 2026-05-04 21:54 | 54.87513 | -1.84905 | 8012 ft | 274 kts | 203° |
| 2026-05-04 21:54 | 54.85717 | -1.86052 | 8018 ft | 275 kts | 203° |
| 2026-05-04 21:55 | 54.83925 | -1.87195 | 8042 ft | 274 kts | 203° |
| 2026-05-04 21:55 | 54.82094 | -1.88131 | 8019 ft | 278 kts | 188° |
| 2026-05-04 21:55 | 54.80196 | -1.87698 | 8061 ft | 281 kts | 164° |
| 2026-05-04 21:55 | 54.78397 | -1.86319 | 8071 ft | 283 kts | 156° |
| 2026-05-04 21:56 | 54.76622 | -1.84825 | 8052 ft | 284 kts | 157° |
| 2026-05-04 21:56 | 54.74835 | -1.83345 | 8060 ft | 285 kts | 157° |
| 2026-05-04 21:56 | 54.73036 | -1.81877 | 8044 ft | 286 kts | 157° |
| 2026-05-04 21:56 | 54.71180 | -1.80674 | 8017 ft | 283 kts | 174° |
| 2026-05-04 21:57 | 54.69247 | -1.80794 | 8279 ft | 285 kts | 192° |
| 2026-05-04 21:57 | 54.67291 | -1.81427 | 9312 ft | 285 kts | 194° |
| 2026-05-04 21:57 | 54.65329 | -1.82090 | 10313 ft | 289 kts | 194° |
| 2026-05-04 21:57 | 54.63285 | -1.82778 | 10799 ft | 313 kts | 194° |
| 2026-05-04 21:58 | 54.61058 | -1.83511 | 11239 ft | 333 kts | 193° |
| 2026-05-04 21:58 | 54.58755 | -1.84248 | 12127 ft | 338 kts | 193° |
| 2026-05-04 21:58 | 54.56424 | -1.84988 | 13150 ft | 341 kts | 193° |
| 2026-05-04 21:58 | 54.54107 | -1.85721 | 14099 ft | 345 kts | 193° |
| 2026-05-04 21:59 | 54.51729 | -1.86467 | 14972 ft | 349 kts | 193° |
| 2026-05-04 21:59 | 54.49333 | -1.87216 | 15874 ft | 353 kts | 192° |
| 2026-05-04 21:59 | 54.46898 | -1.87977 | 16786 ft | 356 kts | 192° |
| 2026-05-04 21:59 | 54.44445 | -1.88743 | 17706 ft | 360 kts | 192° |
| 2026-05-04 22:00 | 54.41954 | -1.89521 | 18573 ft | 365 kts | 192° |
| 2026-05-04 22:00 | 54.39434 | -1.90309 | 19321 ft | 371 kts | 192° |
| 2026-05-04 22:00 | 54.36872 | -1.91113 | 20054 ft | 376 kts | 192° |
| 2026-05-04 22:00 | 54.34305 | -1.91917 | 20780 ft | 382 kts | 192° |
| 2026-05-04 22:01 | 54.31664 | -1.92744 | 21519 ft | 387 kts | 192° |
| 2026-05-04 22:01 | 54.28994 | -1.93577 | 22242 ft | 393 kts | 192° |
| 2026-05-04 22:01 | 54.26283 | -1.94425 | 22967 ft | 398 kts | 192° |
| 2026-05-04 22:01 | 54.23608 | -1.95751 | 23631 ft | 403 kts | 204° |
| 2026-05-04 22:02 | 54.21136 | -1.98009 | 24285 ft | 404 kts | 214° |
| 2026-05-04 22:02 | 54.18943 | -2.01032 | 24952 ft | 406 kts | 224° |
| 2026-05-04 22:02 | 54.16882 | -2.04374 | 25544 ft | 411 kts | 225° |
| 2026-05-04 22:02 | 54.14837 | -2.07753 | 26087 ft | 417 kts | 225° |
| 2026-05-04 22:03 | 54.12729 | -2.11213 | 26668 ft | 421 kts | 224° |
| 2026-05-04 22:03 | 54.10593 | -2.14672 | 27271 ft | 425 kts | 224° |
| 2026-05-04 22:03 | 54.08424 | -2.18149 | 27859 ft | 429 kts | 224° |
| 2026-05-04 22:03 | 54.06235 | -2.21637 | 28429 ft | 433 kts | 224° |
| 2026-05-04 22:04 | 54.04025 | -2.25147 | 28963 ft | 437 kts | 223° |
| 2026-05-04 22:04 | 54.01626 | -2.28363 | 29460 ft | 442 kts | 214° |
| 2026-05-04 22:04 | 53.98921 | -2.30903 | 29981 ft | 446 kts | 204° |
| 2026-05-04 22:04 | 53.96055 | -2.32806 | 30450 ft | 449 kts | 200° |
| 2026-05-04 22:05 | 53.93090 | -2.34649 | 30743 ft | 456 kts | 200° |
| 2026-05-04 22:05 | 53.90096 | -2.36493 | 31127 ft | 459 kts | 200° |
| 2026-05-04 22:05 | 53.87091 | -2.38364 | 31562 ft | 461 kts | 200° |
| 2026-05-04 22:05 | 53.84077 | -2.40269 | 31988 ft | 462 kts | 200° |
| 2026-05-04 22:06 | 53.81090 | -2.42173 | 32450 ft | 462 kts | 201° |
| 2026-05-04 22:06 | 53.78078 | -2.44101 | 32997 ft | 461 kts | 201° |
| 2026-05-04 22:06 | 53.75094 | -2.46012 | 33548 ft | 458 kts | 201° |
| 2026-05-04 22:06 | 53.72105 | -2.47922 | 34044 ft | 458 kts | 201° |
| 2026-05-04 22:07 | 53.69120 | -2.49824 | 34337 ft | 460 kts | 200° |
| 2026-05-04 22:07 | 53.66090 | -2.51626 | 34564 ft | 463 kts | 193° |
| 2026-05-04 22:07 | 53.62900 | -2.52307 | 34923 ft | 461 kts | 178° |
| 2026-05-04 22:07 | 53.59737 | -2.51701 | 35458 ft | 454 kts | 165° |
| 2026-05-04 22:08 | 53.56805 | -2.49971 | 35913 ft | 450 kts | 155° |
| 2026-05-04 22:08 | 53.53952 | -2.47809 | 36281 ft | 450 kts | 155° |
| 2026-05-04 22:08 | 53.51086 | -2.45651 | 36524 ft | 452 kts | 156° |
| 2026-05-04 22:08 | 53.48187 | -2.43551 | 36808 ft | 453 kts | 156° |
| 2026-05-04 22:09 | 53.45287 | -2.41501 | 37178 ft | 452 kts | 157° |
| 2026-05-04 22:09 | 53.42387 | -2.39465 | 37552 ft | 451 kts | 157° |
| 2026-05-04 22:09 | 53.39525 | -2.37455 | 37833 ft | 451 kts | 157° |
| 2026-05-04 22:09 | 53.36612 | -2.35408 | 38204 ft | 450 kts | 158° |
| 2026-05-04 22:10 | 53.33733 | -2.33385 | 38605 ft | 448 kts | 158° |
| 2026-05-04 22:10 | 53.30851 | -2.31361 | 38885 ft | 447 kts | 158° |
| 2026-05-04 22:10 | 53.27974 | -2.29343 | 39063 ft | 449 kts | 158° |
| 2026-05-04 22:11 | 53.22152 | -2.25291 | 39071 ft | 454 kts | 159° |
| 2026-05-04 22:11 | 53.16360 | -2.21315 | 39069 ft | 449 kts | 158° |
| 2026-05-04 22:12 | 53.10600 | -2.17352 | 39067 ft | 446 kts | 158° |
| 2026-05-04 22:12 | 53.04864 | -2.13382 | 39070 ft | 445 kts | 158° |
| 2026-05-04 22:13 | 52.99166 | -2.09446 | 39062 ft | 445 kts | 158° |
| 2026-05-04 22:13 | 52.93439 | -2.05505 | 39069 ft | 444 kts | 158° |
| 2026-05-04 22:14 | 52.87762 | -2.01610 | 39062 ft | 444 kts | 158° |
| 2026-05-04 22:14 | 52.82035 | -1.97693 | 39059 ft | 445 kts | 158° |
| 2026-05-04 22:15 | 52.76313 | -1.93790 | 39059 ft | 445 kts | 158° |
| 2026-05-04 22:15 | 52.71535 | -1.90540 | 39059 ft | 446 kts | 158° |
| 2026-05-04 22:16 | 52.65789 | -1.86641 | 39057 ft | 447 kts | 158° |
| 2026-05-04 22:16 | 52.60032 | -1.82746 | 39052 ft | 448 kts | 158° |
| 2026-05-04 22:17 | 52.54253 | -1.78847 | 39049 ft | 449 kts | 158° |
| 2026-05-04 22:17 | 52.48468 | -1.74954 | 39047 ft | 449 kts | 158° |
| 2026-05-04 22:18 | 52.42707 | -1.71088 | 39051 ft | 450 kts | 158° |
| 2026-05-04 22:18 | 52.36904 | -1.67206 | 39048 ft | 451 kts | 158° |
| 2026-05-04 22:19 | 52.31219 | -1.62895 | 39059 ft | 451 kts | 153° |
| 2026-05-04 22:19 | 52.25626 | -1.58209 | 39045 ft | 451 kts | 153° |
| 2026-05-04 22:20 | 52.20016 | -1.53557 | 39051 ft | 451 kts | 154° |
| 2026-05-04 22:20 | 52.14432 | -1.48999 | 39048 ft | 451 kts | 154° |
| 2026-05-04 22:21 | 52.08814 | -1.44436 | 39053 ft | 451 kts | 154° |
| 2026-05-04 22:21 | 52.03205 | -1.39880 | 39044 ft | 450 kts | 154° |
| 2026-05-04 22:22 | 51.97610 | -1.35330 | 39045 ft | 448 kts | 154° |
| 2026-05-04 22:22 | 51.92033 | -1.30828 | 39045 ft | 446 kts | 154° |
| 2026-05-04 22:23 | 51.86502 | -1.26385 | 39049 ft | 445 kts | 154° |
| 2026-05-04 22:23 | 51.80958 | -1.21939 | 39046 ft | 443 kts | 154° |
| 2026-05-04 22:24 | 51.75435 | -1.17520 | 39047 ft | 442 kts | 154° |
| 2026-05-04 22:24 | 51.69942 | -1.13137 | 39047 ft | 442 kts | 154° |
| 2026-05-04 22:25 | 51.64427 | -1.08747 | 39050 ft | 441 kts | 154° |
| 2026-05-04 22:25 | 51.59080 | -1.03858 | 39059 ft | 442 kts | 145° |
| 2026-05-04 22:26 | 51.54138 | -0.98051 | 39057 ft | 443 kts | 144° |
| 2026-05-04 22:26 | 51.49129 | -0.92246 | 39041 ft | 444 kts | 146° |
| 2026-05-04 22:27 | 51.44120 | -0.86365 | 39035 ft | 446 kts | 141° |
| 2026-05-04 22:27 | 51.39542 | -0.79699 | 39043 ft | 447 kts | 138° |
| 2026-05-04 22:28 | 51.34998 | -0.72843 | 39055 ft | 448 kts | 138° |
| 2026-05-04 22:28 | 51.30448 | -0.66081 | 39022 ft | 449 kts | 139° |
| 2026-05-04 22:29 | 51.25840 | -0.59326 | 39022 ft | 449 kts | 139° |
| 2026-05-04 22:29 | 51.21232 | -0.52611 | 39025 ft | 448 kts | 139° |
| 2026-05-04 22:30 | 51.16621 | -0.45912 | 39026 ft | 448 kts | 139° |
| 2026-05-04 22:30 | 51.12018 | -0.39242 | 39026 ft | 447 kts | 139° |
| 2026-05-04 22:31 | 51.07444 | -0.32630 | 39027 ft | 446 kts | 139° |
| 2026-05-04 22:31 | 51.02840 | -0.25993 | 39020 ft | 446 kts | 139° |
| 2026-05-04 22:31 | 51.00525 | -0.22664 | 38470 ft | 453 kts | 139° |
| 2026-05-04 22:32 | 50.98188 | -0.19307 | 37846 ft | 449 kts | 139° |
| 2026-05-04 22:32 | 50.95902 | -0.16025 | 37134 ft | 447 kts | 139° |
| 2026-05-04 22:32 | 50.93572 | -0.12687 | 36423 ft | 445 kts | 140° |
| 2026-05-04 22:32 | 50.91305 | -0.09444 | 35690 ft | 444 kts | 140° |
| 2026-05-04 22:33 | 50.89012 | -0.06168 | 34883 ft | 444 kts | 140° |
| 2026-05-04 22:33 | 50.86711 | -0.02885 | 34068 ft | 444 kts | 141° |
| 2026-05-04 22:33 | 50.84415 | 0.00385 | 33152 ft | 443 kts | 141° |
| 2026-05-04 22:33 | 50.82152 | 0.03608 | 32609 ft | 434 kts | 141° |
| 2026-05-04 22:34 | 50.79916 | 0.06789 | 32004 ft | 428 kts | 141° |
| 2026-05-04 22:34 | 50.77737 | 0.09881 | 31399 ft | 423 kts | 141° |
| 2026-05-04 22:34 | 50.75563 | 0.12953 | 30863 ft | 416 kts | 142° |
| 2026-05-04 22:34 | 50.73374 | 0.15850 | 30581 ft | 403 kts | 144° |
| 2026-05-04 22:35 | 50.71207 | 0.18582 | 30414 ft | 397 kts | 145° |
| 2026-05-04 22:35 | 50.69003 | 0.21328 | 30130 ft | 407 kts | 144° |
| 2026-05-04 22:35 | 50.66776 | 0.24117 | 29840 ft | 410 kts | 144° |
| 2026-05-04 22:35 | 50.64559 | 0.26920 | 29548 ft | 406 kts | 144° |
| 2026-05-04 22:36 | 50.62369 | 0.29704 | 29289 ft | 403 kts | 144° |
| 2026-05-04 22:36 | 50.60190 | 0.32472 | 29001 ft | 401 kts | 144° |
| 2026-05-04 22:36 | 50.58052 | 0.35185 | 28768 ft | 399 kts | 144° |
| 2026-05-04 22:36 | 50.55879 | 0.37946 | 28478 ft | 398 kts | 144° |
| 2026-05-04 22:37 | 50.53727 | 0.40684 | 28213 ft | 397 kts | 144° |
| 2026-05-04 22:37 | 50.51607 | 0.43380 | 27969 ft | 396 kts | 143° |
| 2026-05-04 22:37 | 50.49459 | 0.46108 | 27699 ft | 395 kts | 143° |
| 2026-05-04 22:37 | 50.47317 | 0.48822 | 27430 ft | 396 kts | 143° |
| 2026-05-04 22:38 | 50.45165 | 0.51542 | 27175 ft | 397 kts | 143° |
| 2026-05-04 22:38 | 50.43011 | 0.54260 | 26917 ft | 398 kts | 143° |
| 2026-05-04 22:38 | 50.40847 | 0.56989 | 26662 ft | 398 kts | 143° |
| 2026-05-04 22:38 | 50.38717 | 0.59673 | 26404 ft | 397 kts | 143° |
| 2026-05-04 22:39 | 50.36569 | 0.62376 | 26150 ft | 395 kts | 143° |
| 2026-05-04 22:39 | 50.34421 | 0.65076 | 25851 ft | 394 kts | 143° |
| 2026-05-04 22:39 | 50.32273 | 0.67777 | 25473 ft | 392 kts | 143° |
| 2026-05-04 22:39 | 50.30186 | 0.70402 | 25131 ft | 386 kts | 143° |
| 2026-05-04 22:40 | 50.28102 | 0.73022 | 24785 ft | 380 kts | 143° |
| 2026-05-04 22:40 | 50.26045 | 0.75604 | 24446 ft | 378 kts | 142° |
| 2026-05-04 22:40 | 50.23987 | 0.78184 | 24115 ft | 378 kts | 142° |
| 2026-05-04 22:40 | 50.21957 | 0.80726 | 23773 ft | 377 kts | 142° |
| 2026-05-04 22:41 | 50.19902 | 0.83295 | 23416 ft | 378 kts | 142° |
| 2026-05-04 22:41 | 50.17853 | 0.85852 | 23023 ft | 377 kts | 142° |
| 2026-05-04 22:41 | 50.15796 | 0.88410 | 22658 ft | 376 kts | 142° |
| 2026-05-04 22:41 | 50.13754 | 0.90945 | 22303 ft | 373 kts | 142° |
| 2026-05-04 22:42 | 50.11760 | 0.93418 | 21972 ft | 368 kts | 142° |
| 2026-05-04 22:42 | 50.09765 | 0.95891 | 21639 ft | 363 kts | 142° |
| 2026-05-04 22:42 | 50.07791 | 0.98335 | 21308 ft | 361 kts | 142° |
| 2026-05-04 22:42 | 50.05815 | 1.00746 | 20980 ft | 360 kts | 145° |
| 2026-05-04 22:43 | 50.03655 | 1.02707 | 20674 ft | 358 kts | 154° |
| 2026-05-04 22:43 | 50.01411 | 1.04390 | 20348 ft | 358 kts | 155° |
| 2026-05-04 22:43 | 49.99180 | 1.05997 | 20031 ft | 357 kts | 155° |
| 2026-05-04 22:43 | 49.96930 | 1.07614 | 19719 ft | 356 kts | 155° |
| 2026-05-04 22:44 | 49.94690 | 1.09242 | 19382 ft | 355 kts | 155° |
| 2026-05-04 22:44 | 49.92451 | 1.10886 | 19067 ft | 354 kts | 155° |
| 2026-05-04 22:44 | 49.90225 | 1.12533 | 18748 ft | 354 kts | 154° |
| 2026-05-04 22:44 | 49.88000 | 1.14189 | 18426 ft | 352 kts | 154° |
| 2026-05-04 22:45 | 49.85820 | 1.15814 | 18087 ft | 351 kts | 154° |
| 2026-05-04 22:45 | 49.81436 | 1.19086 | 17402 ft | 347 kts | 154° |
| 2026-05-04 22:45 | 49.79261 | 1.20709 | 17085 ft | 345 kts | 154° |
| 2026-05-04 22:46 | 49.77134 | 1.22295 | 16762 ft | 343 kts | 154° |
| 2026-05-04 22:46 | 49.74998 | 1.23886 | 16460 ft | 341 kts | 154° |
| 2026-05-04 22:46 | 49.72861 | 1.25476 | 16159 ft | 339 kts | 154° |
| 2026-05-04 22:46 | 49.70740 | 1.27053 | 15851 ft | 337 kts | 154° |
| 2026-05-04 22:47 | 49.68631 | 1.28620 | 15544 ft | 336 kts | 154° |
| 2026-05-04 22:47 | 49.66525 | 1.30182 | 15241 ft | 334 kts | 153° |
| 2026-05-04 22:47 | 49.64431 | 1.31734 | 14944 ft | 333 kts | 153° |
| 2026-05-04 22:47 | 49.62371 | 1.33260 | 14647 ft | 332 kts | 153° |
| 2026-05-04 22:48 | 49.60290 | 1.34800 | 14344 ft | 331 kts | 154° |
| 2026-05-04 22:48 | 49.58213 | 1.36336 | 14049 ft | 330 kts | 153° |
| 2026-05-04 22:48 | 49.56134 | 1.37871 | 13749 ft | 330 kts | 153° |
| 2026-05-04 22:48 | 49.54062 | 1.39400 | 13421 ft | 329 kts | 153° |
| 2026-05-04 22:49 | 49.51999 | 1.40920 | 13106 ft | 328 kts | 153° |
| 2026-05-04 22:49 | 49.49946 | 1.42433 | 12793 ft | 327 kts | 154° |
| 2026-05-04 22:49 | 49.47919 | 1.43924 | 12504 ft | 325 kts | 154° |
| 2026-05-04 22:49 | 49.45873 | 1.45428 | 12203 ft | 324 kts | 153° |
| 2026-05-04 22:50 | 49.43836 | 1.46925 | 11907 ft | 323 kts | 153° |
| 2026-05-04 22:50 | 49.41795 | 1.48422 | 11612 ft | 322 kts | 153° |
| 2026-05-04 22:50 | 49.39798 | 1.49887 | 11324 ft | 321 kts | 153° |
| 2026-05-04 22:50 | 49.37778 | 1.51368 | 11028 ft | 320 kts | 153° |
| 2026-05-04 22:51 | 49.35759 | 1.52845 | 10743 ft | 320 kts | 153° |
| 2026-05-04 22:51 | 49.33767 | 1.54300 | 10448 ft | 312 kts | 153° |
| 2026-05-04 22:51 | 49.31878 | 1.55821 | 10137 ft | 303 kts | 142° |
| 2026-05-04 22:51 | 49.30541 | 1.58164 | 9962 ft | 289 kts | 118° |
| 2026-05-04 22:52 | 49.29844 | 1.60946 | 9957 ft | 272 kts | 100° |
| 2026-05-04 22:52 | 49.29644 | 1.63810 | 9619 ft | 269 kts | 93° |
| 2026-05-04 22:52 | 49.29539 | 1.66637 | 9462 ft | 262 kts | 93° |
| 2026-05-04 22:52 | 49.29434 | 1.69421 | 9282 ft | 261 kts | 93° |
| 2026-05-04 22:53 | 49.29321 | 1.72174 | 9121 ft | 262 kts | 93° |
| 2026-05-04 22:53 | 49.29185 | 1.74968 | 8958 ft | 264 kts | 98° |
| 2026-05-04 22:53 | 49.28538 | 1.77602 | 8839 ft | 264 kts | 118° |
| 2026-05-04 22:53 | 49.27625 | 1.80042 | 8673 ft | 266 kts | 119° |
| 2026-05-04 22:54 | 49.26699 | 1.82522 | 8558 ft | 266 kts | 118° |
| 2026-05-04 22:54 | 49.25792 | 1.84961 | 8412 ft | 267 kts | 118° |
| 2026-05-04 22:54 | 49.24874 | 1.87438 | 8263 ft | 268 kts | 118° |
| 2026-05-04 22:54 | 49.23954 | 1.89924 | 8136 ft | 269 kts | 118° |
| 2026-05-04 22:55 | 49.23028 | 1.92428 | 7990 ft | 269 kts | 118° |
| 2026-05-04 22:55 | 49.22110 | 1.94910 | 7842 ft | 266 kts | 118° |
| 2026-05-04 22:55 | 49.21206 | 1.97356 | 7709 ft | 262 kts | 118° |
| 2026-05-04 22:55 | 49.20313 | 1.99770 | 7563 ft | 260 kts | 118° |
| 2026-05-04 22:56 | 49.19431 | 2.02156 | 7447 ft | 260 kts | 118° |
| 2026-05-04 22:56 | 49.18539 | 2.04562 | 7311 ft | 260 kts | 118° |
| 2026-05-04 22:56 | 49.17643 | 2.06978 | 7175 ft | 260 kts | 118° |
| 2026-05-04 22:56 | 49.16747 | 2.09380 | 7041 ft | 260 kts | 120° |
| 2026-05-04 22:57 | 49.15522 | 2.11315 | 6932 ft | 248 kts | 148° |
| 2026-05-04 22:57 | 49.14017 | 2.12303 | 6851 ft | 230 kts | 161° |
| 2026-05-04 22:57 | 49.12525 | 2.12899 | 6763 ft | 213 kts | 164° |
| 2026-05-04 22:57 | 49.11135 | 2.13412 | 6658 ft | 195 kts | 164° |
| 2026-05-04 22:58 | 49.09871 | 2.13883 | 6529 ft | 179 kts | 163° |
| 2026-05-04 22:58 | 49.08711 | 2.14325 | 6354 ft | 167 kts | 163° |
| 2026-05-04 22:58 | 49.07601 | 2.14756 | 6006 ft | 166 kts | 163° |
| 2026-05-04 22:58 | 49.06478 | 2.15195 | 5683 ft | 166 kts | 163° |
| 2026-05-04 22:59 | 49.05369 | 2.15630 | 5363 ft | 163 kts | 163° |
| 2026-05-04 22:59 | 49.04263 | 2.16065 | 5011 ft | 164 kts | 163° |
| 2026-05-04 22:59 | 49.03162 | 2.16498 | 4688 ft | 163 kts | 163° |
| 2026-05-04 22:59 | 49.02059 | 2.16932 | 4348 ft | 163 kts | 163° |
| 2026-05-04 23:00 | 49.01011 | 2.17534 | 3979 ft | 159 kts | 135° |
| 2026-05-04 23:00 | 49.00613 | 2.19007 | 3955 ft | 154 kts | 84° |
| 2026-05-04 23:00 | 49.00719 | 2.20627 | 3960 ft | 155 kts | 84° |
| 2026-05-04 23:00 | 49.00810 | 2.22228 | 3984 ft | 144 kts | 84° |
| 2026-05-04 23:01 | 49.00894 | 2.23692 | 3927 ft | 132 kts | 84° |
| 2026-05-04 23:01 | 49.00993 | 2.25061 | 3905 ft | 129 kts | 82° |
| 2026-05-04 23:01 | 49.01092 | 2.26418 | 3748 ft | 131 kts | 83° |
| 2026-05-04 23:01 | 49.01176 | 2.27782 | 3586 ft | 128 kts | 83° |
| 2026-05-04 23:02 | 49.01252 | 2.29135 | 3423 ft | 128 kts | 84° |
| 2026-05-04 23:02 | 49.01324 | 2.30485 | 3252 ft | 127 kts | 83° |
| 2026-05-04 23:02 | 49.01394 | 2.31826 | 3081 ft | 127 kts | 84° |
| 2026-05-04 23:02 | 49.01463 | 2.33169 | 2905 ft | 127 kts | 84° |
| 2026-05-04 23:03 | 49.01531 | 2.34509 | 2745 ft | 127 kts | 83° |
| 2026-05-04 23:03 | 49.01601 | 2.35849 | 2557 ft | 126 kts | 84° |
| 2026-05-04 23:03 | 49.01647 | 2.36727 | 2466 ft | 126 kts | 84° |
| 2026-05-04 23:03 | 49.01738 | 2.38492 | 2244 ft | 126 kts | 84° |
| 2026-05-04 23:04 | 49.01807 | 2.39832 | 2052 ft | 126 kts | 83° |
| 2026-05-04 23:04 | 49.01875 | 2.41145 | 1896 ft | 125 kts | 83° |
| 2026-05-04 23:04 | 49.01922 | 2.42041 | 1789 ft | 125 kts | 83° |
| 2026-05-04 23:04 | 49.01989 | 2.43328 | 1591 ft | 121 kts | 83° |
| 2026-05-04 23:05 | 49.02057 | 2.44610 | 1472 ft | 123 kts | 83° |
| 2026-05-04 23:05 | 49.02125 | 2.45918 | 1282 ft | 121 kts | 84° |
| 2026-05-04 23:05 | 49.02193 | 2.47217 | 1100 ft | 126 kts | 83° |
| 2026-05-04 23:05 | 49.02263 | 2.48539 | 939 ft | 124 kts | 84° |
| 2026-05-04 23:06 | 49.02332 | 2.49854 | 757 ft | 124 kts | 84° |
| 2026-05-04 23:06 | 49.02402 | 2.51170 | 613 ft | 124 kts | 83° |
| 2026-05-04 23:06 | 49.02476 | 2.52492 | 436 ft | 125 kts | 84° |
| 2026-05-04 23:06 | 49.02543 | 2.53769 | 360 ft | 115 kts | 84° |
| 2026-05-04 23:07 | 49.02606 | 2.54810 | 352 ft | 77 kts | 85° |
| 2026-05-04 23:07 | 49.02630 | 2.55396 | 356 ft | 34 kts | 85° |
| 2026-05-04 23:07 | 49.02645 | 2.55700 | 355 ft | 28 kts | 94° |
| 2026-05-04 23:07 | 49.02568 | 2.55919 | 353 ft | 18 kts | 144° |
| 2026-05-04 23:08 | 49.02449 | 2.55952 | 353 ft | 17 kts | 176° |
| 2026-05-04 23:08 | 49.02331 | 2.55965 | 353 ft | 17 kts | 175° |
| 2026-05-04 23:08 | 49.02220 | 2.55981 | 354 ft | 16 kts | 174° |
| 2026-05-04 23:08 | 49.02114 | 2.55965 | 353 ft | 16 kts | 218° |
| 2026-05-04 23:09 | 49.02080 | 2.55816 | 359 ft | 15 kts | 265° |
| 2026-05-04 23:09 | 49.02071 | 2.55661 | 356 ft | 14 kts | 265° |
| 2026-05-04 23:09 | 49.02064 | 2.55513 | 353 ft | 14 kts | 264° |
| 2026-05-04 23:09 | 49.02055 | 2.55372 | 353 ft | 13 kts | 265° |
| 2026-05-04 23:10 | 49.02048 | 2.55236 | 353 ft | 13 kts | 265° |
| 2026-05-04 23:10 | 49.02040 | 2.55101 | 353 ft | 14 kts | 265° |
| 2026-05-04 23:10 | 49.02032 | 2.54948 | 360 ft | 15 kts | 265° |
| 2026-05-04 23:10 | 49.02022 | 2.54777 | 354 ft | 17 kts | 264° |
| 2026-05-04 23:11 | 49.02011 | 2.54588 | 354 ft | 19 kts | 265° |
| 2026-05-04 23:11 | 49.02002 | 2.54383 | 360 ft | 20 kts | 266° |
| 2026-05-04 23:11 | 49.01976 | 2.54177 | 356 ft | 20 kts | 239° |
| 2026-05-04 23:11 | 49.01852 | 2.54122 | 353 ft | 19 kts | 195° |
| 2026-05-04 23:12 | 49.01790 | 2.53954 | 353 ft | 19 kts | 248° |
| 2026-05-04 23:12 | 49.01718 | 2.53795 | 353 ft | 18 kts | 225° |
| 2026-05-04 23:12 | 49.01625 | 2.53672 | 353 ft | 17 kts | 210° |
| 2026-05-04 23:12 | 49.01515 | 2.53605 | 356 ft | 17 kts | 186° |
| 2026-05-04 23:13 | 49.01404 | 2.53612 | 356 ft | 16 kts | 171° |
| 2026-05-04 23:13 | 49.01296 | 2.53651 | 357 ft | 16 kts | 159° |
| 2026-05-04 23:13 | 49.01250 | 2.53765 | 353 ft | 14 kts | 86° |
| 2026-05-04 23:13 | 49.01253 | 2.53883 | 353 ft | 0 kts | 88° |